createdAt,value
2019-05-23T00:02:05.680Z,94.18
2019-05-23T00:04:21.008Z,93.76
2019-05-23T00:06:28.966Z,94.38
2019-05-23T00:08:38.128Z,94.54
2019-05-23T00:10:53.839Z,95.25
2019-05-23T00:13:04.488Z,94.98
2019-05-23T00:15:20.914Z,95.03
2019-05-23T00:17:29.886Z,95.12
2019-05-23T00:19:38.545Z,95.16
2019-05-23T00:21:46.422Z,93.42
2019-05-23T00:23:54.927Z,94.03
2019-05-23T00:26:04.872Z,95.25
2019-05-23T00:28:13.124Z,95.16
2019-05-23T00:30:30.114Z,94.80
2019-05-23T00:32:43.544Z,94.49
2019-05-23T00:34:53.646Z,93.62
2019-05-23T00:37:02.582Z,93.88
2019-05-23T00:39:11.935Z,94.44
2019-05-23T00:41:21.376Z,95.50
2019-05-23T00:43:31.114Z,95.68
2019-05-23T00:45:39.311Z,95.56
2019-05-23T00:47:48.029Z,95.17
2019-05-23T00:49:56.207Z,95.71
2019-05-23T00:52:03.849Z,95.90
2019-05-23T00:54:11.531Z,95.78
2019-05-23T00:56:20.639Z,94.90
2019-05-23T00:58:30.052Z,95.27
2019-05-23T01:00:39.686Z,94.63
2019-05-23T01:02:48.113Z,94.96
2019-05-23T01:04:56.267Z,94.95
2019-05-23T01:07:04.216Z,95.51
2019-05-23T01:09:13.497Z,95.71
2019-05-23T01:11:21.765Z,96.23
2019-05-23T01:13:30.134Z,96.56
2019-05-23T01:15:39.922Z,96.63
2019-05-23T01:17:48.936Z,96.64
2019-05-23T01:19:57.126Z,96.64
2019-05-23T01:22:07.980Z,95.91
2019-05-23T01:24:22.593Z,96.00
2019-05-23T01:26:30.341Z,95.79
2019-05-23T01:28:37.832Z,96.04
2019-05-23T01:30:47.973Z,96.15
2019-05-23T01:32:57.521Z,96.62
2019-05-23T01:35:07.469Z,96.81
2019-05-23T01:37:15.989Z,96.78
2019-05-23T01:39:23.424Z,96.98
2019-05-23T01:41:31.975Z,97.21
2019-05-23T01:43:40.138Z,97.44
2019-05-23T01:45:48.349Z,97.59
2019-05-23T01:47:56.379Z,97.48
2019-05-23T01:50:04.779Z,97.67
2019-05-23T01:52:13.565Z,97.59
2019-05-23T01:54:22.387Z,97.72
2019-05-23T01:56:30.737Z,97.85
2019-05-23T01:58:38.578Z,98.06
2019-05-23T02:00:47.563Z,98.07
2019-05-23T02:02:56.179Z,97.63
2019-05-23T02:05:04.857Z,97.91
2019-05-23T02:07:13.964Z,97.57
2019-05-23T02:09:21.505Z,97.75
2019-05-23T02:11:30.133Z,97.81
2019-05-23T02:13:38.035Z,98.04
2019-05-23T02:15:45.921Z,98.00
2019-05-23T02:17:54.277Z,97.70
2019-05-23T02:20:02.589Z,97.41
2019-05-23T02:22:10.763Z,97.32
2019-05-23T02:24:18.635Z,97.39
2019-05-23T02:26:26.991Z,97.55
2019-05-23T02:28:36.024Z,97.76
2019-05-23T02:30:44.018Z,97.57
2019-05-23T02:32:53.027Z,97.89
2019-05-23T02:35:00.551Z,98.05
2019-05-23T02:37:17.188Z,97.31
2019-05-23T02:39:42.499Z,97.77
2019-05-23T02:42:08.694Z,97.99
2019-05-23T02:44:23.766Z,97.72
2019-05-23T02:46:38.467Z,97.99
2019-05-23T02:48:48.657Z,97.79
2019-05-23T02:51:02.834Z,98.03
2019-05-23T02:53:15.091Z,98.11
2019-05-23T02:55:36.153Z,98.02
2019-05-23T02:57:47.148Z,97.71
2019-05-23T03:00:01.235Z,98.26
2019-05-23T03:03:02.689Z,98.18
2019-05-23T03:05:14.231Z,98.10
2019-05-23T03:07:26.870Z,98.16
2019-05-23T03:09:39.406Z,98.17
2019-05-23T03:11:49.293Z,98.28
2019-05-23T03:13:58.047Z,97.29
2019-05-23T03:16:07.938Z,98.23
2019-05-23T03:18:18.067Z,98.27
2019-05-23T03:20:26.695Z,98.14
2019-05-23T03:22:49.141Z,98.47
2019-05-23T03:24:59.794Z,98.39
2019-05-23T03:27:15.495Z,97.52
2019-05-23T03:29:23.892Z,97.97
2019-05-23T03:31:37.113Z,98.38
2019-05-23T03:33:46.009Z,98.55
2019-05-23T03:35:57.080Z,98.40
2019-05-23T03:38:05.672Z,98.99
2019-05-23T03:40:15.397Z,99.00
2019-05-23T03:42:23.921Z,99.00
2019-05-23T03:44:31.689Z,99.42
2019-05-23T03:46:44.757Z,99.93
2019-05-23T03:48:53.321Z,100.00
2019-05-23T03:51:03.039Z,100.00
2019-05-23T03:53:10.955Z,99.70
2019-05-23T03:55:20.057Z,99.64
2019-05-23T03:57:28.708Z,100.00
2019-05-23T03:59:36.242Z,99.99
2019-05-23T04:01:49.022Z,100.00
2019-05-23T04:03:58.903Z,99.49
2019-05-23T04:06:07.119Z,99.61
2019-05-23T04:08:15.534Z,100.00
2019-05-23T04:10:23.828Z,99.67
2019-05-23T04:12:31.640Z,99.65
2019-05-23T04:14:39.566Z,99.95
2019-05-23T04:16:47.949Z,100.00
2019-05-23T04:18:55.413Z,98.99
2019-05-23T04:21:03.396Z,99.87
2019-05-23T04:23:11.326Z,99.79
2019-05-23T04:25:19.425Z,99.63
2019-05-23T04:27:27.615Z,100.00
2019-05-23T04:29:35.147Z,99.81
2019-05-23T04:31:42.942Z,99.68
2019-05-23T04:33:50.699Z,99.57
2019-05-23T04:35:58.110Z,99.58
2019-05-23T04:38:06.131Z,99.80
2019-05-23T04:40:15.772Z,100.00
2019-05-23T04:42:23.844Z,98.76
2019-05-23T04:44:31.474Z,100.00
2019-05-23T04:46:39.165Z,100.00
2019-05-23T04:48:46.784Z,100.00
2019-05-23T04:50:54.423Z,100.00
2019-05-23T04:53:02.515Z,100.00
2019-05-23T04:55:12.184Z,100.00
2019-05-23T04:57:21.123Z,100.00
2019-05-23T04:59:28.958Z,100.00
2019-05-23T05:01:37.467Z,100.00
2019-05-23T05:03:47.098Z,100.00
2019-05-23T05:05:54.932Z,100.00
2019-05-23T05:08:02.509Z,100.00
2019-05-23T05:10:13.468Z,100.00
2019-05-23T05:12:22.624Z,100.00
2019-05-23T05:14:30.379Z,100.00
2019-05-23T05:16:37.991Z,100.00
2019-05-23T05:18:45.443Z,99.87
2019-05-23T05:20:53.121Z,100.00
2019-05-23T05:23:01.017Z,98.39
2019-05-23T05:25:10.837Z,99.20
2019-05-23T05:27:19.769Z,98.87
2019-05-23T05:29:27.630Z,98.29
2019-05-23T05:31:35.020Z,99.17
2019-05-23T05:33:42.702Z,98.72
2019-05-23T05:35:50.578Z,98.65
2019-05-23T05:37:58.602Z,98.53
2019-05-23T05:40:07.506Z,99.79
2019-05-23T05:42:15.090Z,100.00
2019-05-23T05:44:22.674Z,100.00
2019-05-23T05:46:30.820Z,99.95
2019-05-23T05:48:38.516Z,100.00
2019-05-23T05:50:46.211Z,100.00
2019-05-23T05:52:54.128Z,100.00
2019-05-23T05:55:01.916Z,100.00
2019-05-23T05:57:09.937Z,100.00
2019-05-23T05:59:17.728Z,100.00
2019-05-23T06:01:33.948Z,100.00
2019-05-23T06:03:34.857Z,100.00
2019-05-23T06:05:58.704Z,100.00
2019-05-23T06:08:08.164Z,100.00
2019-05-23T06:10:17.205Z,100.00
2019-05-23T06:12:25.472Z,100.00
2019-05-23T06:14:33.328Z,100.00
2019-05-23T06:16:43.129Z,99.38
2019-05-23T06:18:50.730Z,99.31
2019-05-23T06:20:59.583Z,98.26
2019-05-23T06:23:07.019Z,98.63
2019-05-23T06:25:15.176Z,98.80
2019-05-23T06:27:23.238Z,100.00
2019-05-23T06:29:30.887Z,99.83
2019-05-23T06:31:39.276Z,99.85
2019-05-23T06:33:47.792Z,96.48
2019-05-23T06:35:55.915Z,98.42
2019-05-23T06:38:03.441Z,95.44
2019-05-23T06:40:12.635Z,97.73
2019-05-23T06:42:20.663Z,98.19
2019-05-23T06:44:28.361Z,98.74
2019-05-23T06:46:36.126Z,98.96
2019-05-23T06:48:45.694Z,98.19
2019-05-23T06:50:52.966Z,97.96
2019-05-23T06:53:01.224Z,96.67
2019-05-23T06:55:09.209Z,98.18
2019-05-23T06:57:17.922Z,98.77
2019-05-23T06:59:25.532Z,98.24
2019-05-23T07:01:33.580Z,97.96
2019-05-23T07:03:43.641Z,97.63
2019-05-23T07:05:51.229Z,97.57
2019-05-23T07:07:58.892Z,98.41
2019-05-23T07:10:08.661Z,97.82
2019-05-23T07:12:16.768Z,96.79
2019-05-23T07:14:24.595Z,97.20
2019-05-23T07:16:32.106Z,96.79
2019-05-23T07:18:40.863Z,97.00
2019-05-23T07:20:48.418Z,97.69
2019-05-23T07:22:56.078Z,98.02
2019-05-23T07:25:03.829Z,97.78
2019-05-23T07:27:11.818Z,97.32
2019-05-23T07:29:20.017Z,96.60
2019-05-23T07:31:27.554Z,94.69
2019-05-23T07:33:35.180Z,95.82
2019-05-23T07:35:42.940Z,95.11
2019-05-23T07:37:50.739Z,95.98
2019-05-23T07:39:58.553Z,95.90
2019-05-23T07:42:06.630Z,94.93
2019-05-23T07:44:14.635Z,95.88
2019-05-23T07:46:22.307Z,96.77
2019-05-23T07:48:30.987Z,95.84
2019-05-23T07:50:38.409Z,96.08
2019-05-23T07:52:46.475Z,95.59
2019-05-23T07:55:08.393Z,95.55
2019-05-23T07:57:16.765Z,95.50
2019-05-23T07:59:24.560Z,95.85
2019-05-23T08:01:34.230Z,96.15
2019-05-23T08:03:42.072Z,95.16
2019-05-23T08:05:49.616Z,95.59
2019-05-23T08:07:57.697Z,95.44
2019-05-23T08:10:06.981Z,96.10
2019-05-23T08:12:14.903Z,96.00
2019-05-23T08:14:22.961Z,95.07
2019-05-23T08:16:30.989Z,94.53
2019-05-23T08:18:39.391Z,93.58
2019-05-23T08:20:48.512Z,93.65
2019-05-23T08:22:56.085Z,91.73
2019-05-23T08:25:03.826Z,92.53
2019-05-23T08:27:12.289Z,92.43
2019-05-23T08:29:27.692Z,92.29
2019-05-23T08:31:29.876Z,93.05
2019-05-23T08:33:38.224Z,92.97
2019-05-23T08:35:46.587Z,93.23
2019-05-23T08:37:55.043Z,92.44
2019-05-23T08:40:03.152Z,91.25
2019-05-23T08:42:10.708Z,92.10
2019-05-23T08:44:19.039Z,90.79
2019-05-23T08:46:27.003Z,89.68
2019-05-23T08:48:34.978Z,91.34
2019-05-23T08:50:42.586Z,91.23
2019-05-23T08:52:50.300Z,91.11
2019-05-23T08:55:03.414Z,91.58
2019-05-23T08:57:13.020Z,89.92
2019-05-23T08:59:20.785Z,89.95
2019-05-23T09:01:29.224Z,89.47
2019-05-23T09:03:37.522Z,90.78
2019-05-23T09:05:47.282Z,89.27
2019-05-23T09:07:56.034Z,91.79
2019-05-23T09:10:04.460Z,90.50
2019-05-23T09:12:12.437Z,90.52
2019-05-23T09:14:20.726Z,90.90
2019-05-23T09:16:28.454Z,90.76
2019-05-23T09:18:36.095Z,89.75
2019-05-23T09:20:43.746Z,88.70
2019-05-23T09:22:51.817Z,89.67
2019-05-23T09:24:59.314Z,89.50
2019-05-23T09:27:07.702Z,89.27
2019-05-23T09:29:15.471Z,89.36
2019-05-23T09:31:24.700Z,90.19
2019-05-23T09:33:32.447Z,89.11
2019-05-23T09:35:40.424Z,88.33
2019-05-23T09:37:49.257Z,88.60
2019-05-23T09:39:57.698Z,89.00
2019-05-23T09:42:05.657Z,89.54
2019-05-23T09:44:13.457Z,89.70
2019-05-23T09:46:21.400Z,89.61
2019-05-23T09:48:29.728Z,88.51
2019-05-23T09:50:37.452Z,88.75
2019-05-23T09:52:45.207Z,89.21
2019-05-23T09:54:52.679Z,88.29
2019-05-23T09:57:00.470Z,86.99
2019-05-23T09:59:09.040Z,85.97
2019-05-23T10:01:18.993Z,86.13
2019-05-23T10:03:26.606Z,86.10
2019-05-23T10:05:42.892Z,85.72
2019-05-23T10:07:43.518Z,87.73
2019-05-23T10:09:51.336Z,86.80
2019-05-23T10:11:59.154Z,86.16
2019-05-23T10:14:11.239Z,85.59
2019-05-23T10:16:19.116Z,86.37
2019-05-23T10:18:26.685Z,87.10
2019-05-23T10:20:36.159Z,86.80
2019-05-23T10:22:43.673Z,85.43
2019-05-23T10:24:51.571Z,85.88
2019-05-23T10:26:59.359Z,85.30
2019-05-23T10:29:07.171Z,85.39
2019-05-23T10:31:15.477Z,86.14
2019-05-23T10:33:23.086Z,85.43
2019-05-23T10:35:31.597Z,85.40
2019-05-23T10:37:39.145Z,86.62
2019-05-23T10:39:53.752Z,87.64
2019-05-23T10:42:01.367Z,88.63
2019-05-23T10:44:09.417Z,86.60
2019-05-23T10:46:17.170Z,86.41
2019-05-23T10:48:25.723Z,87.82
2019-05-23T10:50:44.317Z,86.47
2019-05-23T10:52:42.918Z,86.78
2019-05-23T10:54:50.456Z,87.20
2019-05-23T10:56:58.126Z,89.04
2019-05-23T10:59:06.920Z,88.07
2019-05-23T11:01:15.278Z,87.71
2019-05-23T11:03:24.239Z,87.52
2019-05-23T11:05:31.963Z,87.28
2019-05-23T11:07:40.163Z,86.29
2019-05-23T11:09:48.040Z,87.80
2019-05-23T11:11:55.842Z,87.65
2019-05-23T11:14:08.247Z,89.75
2019-05-23T11:16:13.631Z,87.88
2019-05-23T11:18:21.785Z,87.76
2019-05-23T11:20:29.612Z,88.24
2019-05-23T11:22:37.258Z,89.38
2019-05-23T11:24:44.961Z,89.96
2019-05-23T11:26:53.073Z,86.36
2019-05-23T11:29:01.287Z,85.81
2019-05-23T11:31:10.808Z,84.92
2019-05-23T11:33:19.372Z,85.43
2019-05-23T11:35:27.607Z,86.58
2019-05-23T11:37:35.453Z,86.93
2019-05-23T11:39:49.587Z,85.08
2019-05-23T11:41:52.873Z,83.76
2019-05-23T11:44:00.638Z,84.96
2019-05-23T11:46:21.684Z,85.32
2019-05-23T11:48:30.106Z,84.63
2019-05-23T11:50:37.526Z,85.20
2019-05-23T11:52:45.321Z,86.90
2019-05-23T11:54:53.388Z,87.30
2019-05-23T11:57:01.623Z,87.02
2019-05-23T11:59:09.353Z,86.09
2019-05-23T12:01:22.454Z,87.12
2019-05-23T12:03:30.376Z,87.27
2019-05-23T12:05:38.106Z,86.81
2019-05-23T12:07:47.096Z,87.15
2019-05-23T12:09:54.825Z,85.30
2019-05-23T12:12:02.736Z,87.06
2019-05-23T12:14:11.586Z,87.51
2019-05-23T12:16:21.867Z,88.25
2019-05-23T12:18:29.653Z,88.19
2019-05-23T12:20:37.134Z,89.02
2019-05-23T12:22:44.860Z,89.19
2019-05-23T12:24:52.455Z,88.58
2019-05-23T12:27:00.031Z,86.29
2019-05-23T12:29:07.872Z,86.91
2019-05-23T12:31:16.096Z,87.60
2019-05-23T12:33:23.720Z,87.71
2019-05-23T12:35:31.399Z,88.93
2019-05-23T12:37:39.130Z,91.02
2019-05-23T12:39:46.713Z,91.97
2019-05-23T12:41:54.213Z,94.89
2019-05-23T12:44:02.270Z,93.68
2019-05-23T12:46:10.167Z,94.83
2019-05-23T12:48:27.263Z,95.48
2019-05-23T12:50:41.043Z,95.42
2019-05-23T12:52:50.090Z,96.17
2019-05-23T12:54:57.538Z,95.56
2019-05-23T12:57:06.045Z,94.96
2019-05-23T12:59:14.802Z,96.21
2019-05-23T13:01:24.801Z,96.42
2019-05-23T13:03:33.461Z,96.94
2019-05-23T13:05:42.270Z,96.34
2019-05-23T13:07:50.339Z,97.16
2019-05-23T13:09:58.297Z,97.44
2019-05-23T13:12:06.334Z,97.31
2019-05-23T13:14:14.949Z,97.60
2019-05-23T13:16:22.961Z,97.80
2019-05-23T13:18:31.026Z,97.19
2019-05-23T13:20:38.991Z,97.37
2019-05-23T13:22:47.071Z,96.89
2019-05-23T13:24:54.979Z,97.07
2019-05-23T13:27:03.607Z,96.79
2019-05-23T13:29:11.735Z,97.23
2019-05-23T13:31:21.403Z,97.12
2019-05-23T13:33:29.544Z,98.43
2019-05-23T13:35:37.322Z,98.76
2019-05-23T13:37:53.799Z,99.07
2019-05-23T13:39:54.856Z,98.95
2019-05-23T13:42:02.699Z,98.69
2019-05-23T13:44:29.608Z,99.90
2019-05-23T13:46:20.602Z,99.65
2019-05-23T13:48:28.920Z,100.00
2019-05-23T13:50:37.940Z,100.00
2019-05-23T13:52:46.619Z,100.00
2019-05-23T13:54:54.563Z,100.00
2019-05-23T13:57:02.740Z,99.37
2019-05-23T13:59:11.241Z,98.37
2019-05-23T14:01:20.125Z,96.89
2019-05-23T14:03:28.368Z,98.81
2019-05-23T14:05:36.322Z,100.00
2019-05-23T14:07:44.197Z,100.00
2019-05-23T14:09:52.350Z,100.00
2019-05-23T14:12:20.090Z,99.86
2019-05-23T14:14:11.684Z,100.00
2019-05-23T14:16:19.689Z,100.00
2019-05-23T14:18:28.645Z,100.00
2019-05-23T14:20:36.569Z,99.78
2019-05-23T14:22:49.492Z,99.91
2019-05-23T14:24:58.485Z,100.00
2019-05-23T14:27:16.928Z,100.00
2019-05-23T14:29:24.766Z,99.30
2019-05-23T14:31:38.534Z,99.71
2019-05-23T14:34:11.414Z,100.00
2019-05-23T14:36:35.992Z,100.00
2019-05-23T14:38:44.902Z,100.00
2019-05-23T14:40:53.058Z,100.00
2019-05-23T14:43:12.580Z,100.00
2019-05-23T14:45:42.626Z,100.00
2019-05-23T14:48:11.711Z,100.00
2019-05-23T14:50:34.361Z,100.00
2019-05-23T14:52:44.070Z,100.00
2019-05-23T14:54:56.257Z,100.00
2019-05-23T14:57:05.586Z,100.00
2019-05-23T14:59:13.492Z,100.00
2019-05-23T15:01:21.408Z,100.00
2019-05-23T15:03:30.263Z,100.00
2019-05-23T15:05:39.725Z,100.00
2019-05-23T15:07:47.337Z,100.00
2019-05-23T15:09:55.193Z,100.00
2019-05-23T15:12:02.910Z,100.00
2019-05-23T15:14:10.778Z,100.00
2019-05-23T15:16:21.116Z,100.00
2019-05-23T15:18:28.739Z,100.00
2019-05-23T15:20:36.262Z,100.00
2019-05-23T15:22:44.057Z,100.00
2019-05-23T15:24:51.745Z,100.00
2019-05-23T15:26:59.539Z,100.00
2019-05-23T15:29:10.227Z,100.00
2019-05-23T15:31:18.326Z,100.00
2019-05-23T15:33:26.126Z,100.00
2019-05-23T15:35:34.884Z,100.00
2019-05-23T15:37:42.853Z,100.00
2019-05-23T15:39:50.867Z,100.00
2019-05-23T15:41:58.341Z,100.00
2019-05-23T15:44:22.696Z,100.00
2019-05-23T15:46:15.971Z,100.00
2019-05-23T15:48:23.757Z,99.95
2019-05-23T15:50:37.786Z,100.00
2019-05-23T15:53:10.422Z,99.99
2019-05-23T15:55:36.650Z,100.00
2019-05-23T15:57:49.413Z,99.89
2019-05-23T16:00:15.921Z,100.00
2019-05-23T16:02:28.190Z,100.00
2019-05-23T16:04:36.965Z,100.00
2019-05-23T16:06:45.116Z,100.00
2019-05-23T16:09:25.611Z,100.00
2019-05-23T16:11:19.781Z,100.00
2019-05-23T16:13:29.408Z,100.00
2019-05-23T16:15:37.388Z,100.00
2019-05-23T16:17:45.478Z,100.00
2019-05-23T16:19:53.617Z,100.00
2019-05-23T16:22:01.530Z,100.00
2019-05-23T16:24:09.898Z,100.00
2019-05-23T16:26:18.285Z,100.00
2019-05-23T16:28:26.140Z,100.00
2019-05-23T16:30:34.611Z,100.00
2019-05-23T16:32:42.241Z,99.95
2019-05-23T16:34:49.999Z,99.94
2019-05-23T16:36:57.873Z,100.00
2019-05-23T16:39:08.181Z,99.76
2019-05-23T16:41:16.230Z,100.00
2019-05-23T16:43:23.935Z,100.00
2019-05-23T16:45:32.224Z,100.00
2019-05-23T16:47:39.852Z,100.00
2019-05-23T16:49:47.892Z,100.00
2019-05-23T16:51:56.046Z,100.00
2019-05-23T16:54:05.255Z,100.00
2019-05-23T16:56:21.582Z,100.00
2019-05-23T16:58:49.344Z,100.00
2019-05-23T17:01:24.053Z,100.00
2019-05-23T17:03:38.362Z,100.00
2019-05-23T17:06:07.478Z,100.00
2019-05-23T17:08:31.308Z,100.00
2019-05-23T17:11:02.086Z,100.00
2019-05-23T17:13:34.574Z,100.00
2019-05-23T17:16:07.268Z,100.00
2019-05-23T17:18:39.613Z,100.00
2019-05-23T17:20:58.934Z,100.00
2019-05-23T17:23:16.569Z,100.00
2019-05-23T17:25:46.941Z,100.00
2019-05-23T17:28:13.481Z,100.00
2019-05-23T17:30:47.363Z,100.00
2019-05-23T17:32:56.738Z,100.00
2019-05-23T17:35:05.147Z,100.00
2019-05-23T17:37:14.584Z,100.00
2019-05-23T17:39:24.182Z,100.00
2019-05-23T17:41:32.347Z,100.00
2019-05-23T17:43:40.032Z,100.00
2019-05-23T17:45:48.438Z,100.00
2019-05-23T17:47:58.208Z,100.00
2019-05-23T17:50:09.360Z,100.00
2019-05-23T17:52:18.149Z,100.00
2019-05-23T17:54:26.514Z,100.00
2019-05-23T17:56:34.036Z,100.00
2019-05-23T17:58:42.153Z,100.00
2019-05-23T18:00:51.094Z,100.00
2019-05-23T18:02:59.297Z,100.00
2019-05-23T18:05:08.511Z,100.00
2019-05-23T18:07:17.834Z,100.00
2019-05-23T18:09:25.973Z,100.00
2019-05-23T18:11:35.428Z,100.00
2019-05-23T18:13:46.060Z,100.00
2019-05-23T18:15:56.049Z,100.00
2019-05-23T18:18:04.526Z,100.00
2019-05-23T18:20:14.474Z,100.00
2019-05-23T18:22:22.774Z,100.00
2019-05-23T18:24:31.702Z,100.00
2019-05-23T18:26:39.500Z,100.00
2019-05-23T18:28:47.621Z,100.00
2019-05-23T18:31:07.412Z,100.00
2019-05-23T18:33:13.527Z,100.00
2019-05-23T18:35:21.797Z,100.00
2019-05-23T18:37:29.984Z,100.00
2019-05-23T18:39:38.598Z,100.00
2019-05-23T18:41:48.043Z,100.00
2019-05-23T18:43:57.072Z,100.00
2019-05-23T18:46:08.915Z,100.00
2019-05-23T18:48:16.865Z,100.00
2019-05-23T18:50:25.611Z,100.00
2019-05-23T18:52:34.337Z,100.00
2019-05-23T18:54:42.665Z,100.00
2019-05-23T18:56:51.258Z,100.00
2019-05-23T18:58:59.824Z,100.00
2019-05-23T19:01:35.511Z,100.00
2019-05-23T19:03:44.735Z,100.00
2019-05-23T19:05:53.031Z,100.00
2019-05-23T19:08:01.609Z,100.00
2019-05-23T19:10:10.396Z,100.00
2019-05-23T19:12:18.702Z,100.00
2019-05-23T19:14:27.594Z,100.00
2019-05-23T19:16:37.062Z,100.00
2019-05-23T19:18:45.677Z,100.00
2019-05-23T19:20:55.569Z,100.00
2019-05-23T19:23:03.932Z,100.00
2019-05-23T19:25:13.140Z,100.00
2019-05-23T19:27:21.224Z,100.00
2019-05-23T19:29:29.465Z,100.00
2019-05-23T19:31:38.039Z,100.00
2019-05-23T19:33:49.358Z,100.00
2019-05-23T19:35:58.939Z,100.00
2019-05-23T19:38:07.111Z,100.00
2019-05-23T19:40:16.947Z,100.00
2019-05-23T19:42:25.215Z,100.00
2019-05-23T19:44:33.500Z,100.00
2019-05-23T19:46:42.389Z,100.00
2019-05-23T19:48:51.153Z,100.00
2019-05-23T19:50:58.972Z,100.00
2019-05-23T19:53:07.391Z,100.00
2019-05-23T19:55:15.916Z,100.00
2019-05-23T19:57:24.074Z,100.00
2019-05-23T19:59:34.757Z,100.00
2019-05-23T20:02:01.314Z,100.00
2019-05-23T20:04:10.556Z,100.00
2019-05-23T20:06:19.098Z,100.00
2019-05-23T20:08:27.373Z,100.00
2019-05-23T20:10:36.847Z,100.00
2019-05-23T20:12:45.106Z,100.00
2019-05-23T20:14:53.113Z,100.00
2019-05-23T20:17:01.156Z,100.00
2019-05-23T20:19:09.786Z,100.00
2019-05-23T20:21:18.677Z,100.00
2019-05-23T20:23:26.609Z,100.00
2019-05-23T20:25:34.709Z,100.00
2019-05-23T20:27:42.896Z,100.00
2019-05-23T20:29:51.289Z,100.00
2019-05-23T20:31:58.954Z,100.00
2019-05-23T20:34:07.786Z,100.00
2019-05-23T20:36:17.868Z,100.00
2019-05-23T20:38:26.728Z,100.00
2019-05-23T20:40:35.720Z,100.00
2019-05-23T20:42:43.937Z,100.00
2019-05-23T20:44:51.969Z,100.00
2019-05-23T20:46:59.890Z,100.00
2019-05-23T20:49:08.876Z,100.00
2019-05-23T20:51:17.060Z,100.00
2019-05-23T20:53:25.288Z,100.00
2019-05-23T20:55:33.598Z,100.00
2019-05-23T20:57:41.282Z,100.00
2019-05-23T20:59:49.185Z,100.00
2019-05-23T21:01:56.782Z,99.21
2019-05-23T21:04:06.018Z,98.94
2019-05-23T21:06:15.204Z,98.93
2019-05-23T21:08:23.556Z,98.33
2019-05-23T21:10:50.190Z,97.41
2019-05-23T21:12:57.721Z,96.58
2019-05-23T21:15:05.636Z,96.01
2019-05-23T21:17:13.550Z,95.75
2019-05-23T21:19:21.044Z,95.25
2019-05-23T21:21:28.696Z,95.45
2019-05-23T21:23:36.927Z,95.91
2019-05-23T21:26:01.333Z,95.88
2019-05-23T21:28:09.559Z,97.15
2019-05-23T21:30:17.541Z,97.58
2019-05-23T21:32:25.336Z,97.36
2019-05-23T21:34:33.438Z,96.63
2019-05-23T21:36:40.920Z,96.68
2019-05-23T21:38:48.726Z,95.54
2019-05-23T21:40:56.511Z,95.55
2019-05-23T21:43:04.840Z,95.24
2019-05-23T21:45:13.289Z,95.33
2019-05-23T21:47:20.825Z,95.21
2019-05-23T21:49:29.269Z,95.26
2019-05-23T21:51:37.002Z,95.38
2019-05-23T21:53:44.481Z,95.25
2019-05-23T21:55:52.419Z,95.10
2019-05-23T21:58:00.302Z,94.76
2019-05-23T22:00:12.263Z,95.03
2019-05-23T22:02:26.730Z,95.24
2019-05-23T22:05:03.052Z,95.50
2019-05-23T22:07:10.782Z,95.30
2019-05-23T22:09:18.553Z,95.61
2019-05-23T22:11:27.432Z,95.78
2019-05-23T22:13:35.173Z,96.26
2019-05-23T22:15:42.764Z,97.36
2019-05-23T22:17:50.906Z,97.00
2019-05-23T22:19:58.594Z,97.40
2019-05-23T22:22:07.117Z,96.45
2019-05-23T22:24:15.052Z,96.35
2019-05-23T22:26:22.718Z,96.32
2019-05-23T22:28:30.436Z,95.70
2019-05-23T22:30:38.159Z,95.53
2019-05-23T22:32:46.522Z,95.43
2019-05-23T22:35:06.514Z,95.19
2019-05-23T22:37:20.462Z,95.40
2019-05-23T22:39:28.412Z,96.11
2019-05-23T22:41:37.056Z,95.58
2019-05-23T22:43:44.798Z,95.52
2019-05-23T22:45:53.067Z,95.99
2019-05-23T22:48:01.097Z,96.09
2019-05-23T22:50:08.962Z,96.89
2019-05-23T22:52:16.541Z,97.17
2019-05-23T22:54:24.243Z,97.25
2019-05-23T22:56:31.836Z,95.82
2019-05-23T22:58:39.476Z,95.35
2019-05-23T23:00:48.700Z,95.11
2019-05-23T23:02:56.256Z,95.31
2019-05-23T23:05:03.727Z,95.30
2019-05-23T23:07:11.532Z,96.93
2019-05-23T23:09:19.438Z,96.08
2019-05-23T23:11:27.017Z,95.57
2019-05-23T23:13:38.705Z,95.77
2019-05-23T23:15:44.353Z,96.04
2019-05-23T23:17:52.265Z,96.44
2019-05-23T23:19:59.722Z,96.03
2019-05-23T23:22:10.394Z,95.33
2019-05-23T23:24:17.938Z,95.07
2019-05-23T23:26:25.333Z,95.82
2019-05-23T23:28:33.265Z,95.21
2019-05-23T23:30:42.443Z,95.21
2019-05-23T23:32:50.115Z,94.72
2019-05-23T23:34:57.495Z,95.13
2019-05-23T23:37:05.071Z,95.11
2019-05-23T23:39:12.538Z,94.90
2019-05-23T23:41:19.974Z,95.01
2019-05-23T23:43:27.437Z,94.10
2019-05-23T23:45:52.311Z,94.34
2019-05-23T23:48:17.514Z,94.92
2019-05-23T23:50:42.544Z,93.95
2019-05-23T23:53:07.476Z,93.94
2019-05-23T23:55:32.458Z,93.86
2019-05-23T23:57:58.102Z,93.52
